Time;durP1;ratioP1;P1;durP2;ratioP2;P2;SDS_P1;SDS_P2;PMS_P1;PMS_P2;Temp;Humidity;BMP_temperature;BMP_pressure;BME280_temperature;BME280_humidity;BME280_pressure;Samples;Min_cycle;Max_cycle;Signal;HPM_P1;HPM_P2
2023/08/26 00:00:07;;;;;;;17.45;12.68;;;21.20;99.90;;;;;;5096224;27;20062;-80
2023/08/26 00:02:34;;;;;;;22.92;13.95;;;21.70;99.90;;;;;;5125347;27;20043;-79
2023/08/26 00:04:59;;;;;;;18.50;12.52;;;20.60;99.90;;;;;;5130601;27;20623;-80
2023/08/26 00:07:41;;;;;;;16.20;12.73;;;21.20;99.90;;;;;;5113680;27;20035;-80
2023/08/26 00:10:13;;;;;;;14.43;11.98;;;20.80;99.90;;;;;;5096857;27;20050;-81
2023/08/26 00:12:39;;;;;;;17.17;12.77;;;21.20;99.90;;;;;;5097047;27;20042;-82
2023/08/26 00:15:05;;;;;;;19.40;13.30;;;21.50;99.90;;;;;;5130458;27;20043;-81
2023/08/26 00:17:33;;;;;;;25.85;13.63;;;21.50;99.90;;;;;;5115023;27;20100;-81
2023/08/26 00:19:59;;;;;;;15.35;11.90;;;20.50;99.90;;;;;;5110688;27;20502;-83
2023/08/26 00:22:30;;;;;;;16.05;12.35;;;19.60;99.90;;;;;;5115710;27;20062;-81
2023/08/26 00:24:56;;;;;;;15.70;11.32;;;21.00;99.90;;;;;;5130829;27;20042;-81
2023/08/26 00:27:22;;;;;;;15.80;11.93;;;20.10;99.90;;;;;;5112743;27;20061;-82
2023/08/26 00:29:47;;;;;;;22.60;12.95;;;20.70;99.90;;;;;;5097324;27;20490;-81
2023/08/26 00:32:13;;;;;;;15.30;11.90;;;20.80;99.90;;;;;;5099306;27;20035;-81
2023/08/26 00:34:39;;;;;;;18.20;11.70;;;20.90;99.90;;;;;;5133310;27;20042;-81
2023/08/26 00:37:04;;;;;;;16.60;11.45;;;20.30;99.90;;;;;;5109328;27;20440;-81
2023/08/26 00:39:31;;;;;;;17.35;10.68;;;19.60;99.90;;;;;;5081979;27;20043;-83
2023/08/26 00:41:57;;;;;;;15.27;11.57;;;20.00;99.90;;;;;;5115681;27;20075;-82
2023/08/26 00:44:22;;;;;;;15.13;10.55;;;20.20;99.90;;;;;;5098567;27;20047;-81
2023/08/26 00:46:51;;;;;;;13.07;10.13;;;20.50;99.90;;;;;;5082151;27;20034;-81
2023/08/26 00:49:18;;;;;;;12.23;9.85;;;20.00;99.90;;;;;;5079517;27;20046;-81
2023/08/26 00:51:44;;;;;;;16.75;10.25;;;20.00;99.90;;;;;;5097793;27;20039;-82
2023/08/26 00:54:10;;;;;;;12.48;9.40;;;20.80;99.90;;;;;;5095458;27;20041;-82
2023/08/26 00:56:36;;;;;;;11.07;8.98;;;20.50;99.90;;;;;;5090896;27;20043;-82
2023/08/26 00:59:02;;;;;;;10.20;8.27;;;19.90;99.90;;;;;;5114891;27;20042;-81
2023/08/26 01:01:34;;;;;;;8.93;8.02;;;20.10;99.90;;;;;;5098531;27;20039;-82
2023/08/26 01:03:59;;;;;;;11.13;8.93;;;19.50;99.90;;;;;;5108877;27;20043;-80
2023/08/26 01:06:26;;;;;;;10.07;8.38;;;20.50;99.90;;;;;;5131693;27;20034;-82
2023/08/26 01:08:52;;;;;;;9.35;7.78;;;20.50;99.90;;;;;;5078419;27;20035;-82
2023/08/26 01:11:28;;;;;;;10.00;8.73;;;19.80;99.90;;;;;;5113504;27;20527;-82
2023/08/26 01:14:18;;;;;;;10.30;8.82;;;20.10;99.90;;;;;;5116976;27;20174;-82
2023/08/26 01:16:44;;;;;;;11.48;8.98;;;19.60;99.90;;;;;;5114192;27;20034;-82
2023/08/26 01:19:25;;;;;;;11.98;9.23;;;20.20;99.90;;;;;;5111728;27;20072;-81
2023/08/26 01:21:55;;;;;;;10.50;9.00;;;20.20;99.90;;;;;;5111792;27;20030;-82
2023/08/26 01:24:21;;;;;;;17.13;10.48;;;19.40;99.90;;;;;;5115922;27;20126;-82
2023/08/26 01:26:47;;;;;;;13.68;10.70;;;20.40;99.90;;;;;;5132878;27;20045;-82
2023/08/26 01:29:13;;;;;;;12.25;9.70;;;19.40;99.90;;;;;;5097978;27;20026;-82
2023/08/26 01:31:39;;;;;;;13.35;9.68;;;19.70;99.90;;;;;;5130200;27;20091;-83
2023/08/26 01:34:16;;;;;;;20.42;11.52;;;19.50;99.90;;;;;;5115572;27;20056;-83
2023/08/26 01:36:45;;;;;;;11.07;9.90;;;20.30;99.90;;;;;;5112271;27;20039;-82
2023/08/26 01:39:16;;;;;;;14.57;10.48;;;19.80;99.90;;;;;;5114365;27;20061;-82
2023/08/26 01:41:50;;;;;;;18.17;10.15;;;20.20;99.90;;;;;;5129521;27;20047;-82
2023/08/26 01:44:21;;;;;;;11.70;8.10;;;19.50;99.90;;;;;;5096098;27;20035;-85
2023/08/26 01:46:47;;;;;;;15.00;9.82;;;19.60;99.90;;;;;;5099933;27;20107;-83
2023/08/26 01:49:14;;;;;;;10.25;8.40;;;20.20;99.90;;;;;;5112747;27;20032;-82
2023/08/26 01:51:40;;;;;;;11.20;8.48;;;19.30;99.90;;;;;;5112320;27;20041;-83
2023/08/26 01:54:06;;;;;;;11.05;8.45;;;19.60;99.90;;;;;;5094830;28;20039;-82
2023/08/26 01:56:32;;;;;;;8.98;7.63;;;19.10;99.90;;;;;;5113815;27;20039;-81
2023/08/26 01:58:58;;;;;;;9.55;7.72;;;19.50;99.90;;;;;;5097678;27;20091;-81
2023/08/26 02:01:24;;;;;;;11.05;8.43;;;19.10;99.90;;;;;;5096855;27;20046;-81
2023/08/26 02:03:50;;;;;;;8.45;7.38;;;19.80;99.90;;;;;;5112879;27;20046;-80
2023/08/26 02:06:16;;;;;;;11.45;8.20;;;19.30;99.90;;;;;;5114244;27;20539;-81
2023/08/26 02:08:41;;;;;;;10.45;7.28;;;19.10;99.90;;;;;;5131995;27;20034;-82
2023/08/26 02:11:07;;;;;;;11.02;7.40;;;19.50;99.90;;;;;;5092333;27;20047;-83
2023/08/26 02:13:33;;;;;;;10.52;7.25;;;19.10;99.90;;;;;;5106673;28;20039;-83
2023/08/26 02:16:00;;;;;;;11.65;8.00;;;19.80;99.90;;;;;;5105790;27;20108;-83
2023/08/26 02:18:26;;;;;;;11.02;7.45;;;18.90;99.90;;;;;;5115356;27;20039;-82
2023/08/26 02:20:52;;;;;;;10.52;7.40;;;19.00;99.90;;;;;;5106946;27;20049;-82
2023/08/26 02:23:18;;;;;;;12.52;7.90;;;19.30;99.90;;;;;;5088693;28;20751;-82
2023/08/26 02:25:44;;;;;;;8.30;7.03;;;18.90;99.90;;;;;;5114249;28;20031;-83
2023/08/26 02:28:10;;;;;;;9.48;6.90;;;19.00;99.90;;;;;;5108637;27;20042;-81
2023/08/26 02:30:35;;;;;;;8.45;7.00;;;18.90;99.90;;;;;;5095267;28;20039;-81
2023/08/26 02:33:06;;;;;;;9.68;7.93;;;18.80;99.90;;;;;;5102737;27;20034;-82
2023/08/26 02:35:34;;;;;;;9.50;7.00;;;18.50;99.90;;;;;;5126463;27;20038;-83
2023/08/26 02:37:59;;;;;;;8.27;7.43;;;18.90;99.90;;;;;;5116523;27;20038;-83
2023/08/26 02:40:26;;;;;;;11.18;7.05;;;18.40;99.90;;;;;;5110334;28;20494;-82
2023/08/26 02:42:51;;;;;;;11.52;7.68;;;18.50;99.90;;;;;;5119881;27;20038;-83
2023/08/26 02:45:17;;;;;;;10.13;8.35;;;19.20;99.90;;;;;;5090520;27;20054;-82
2023/08/26 02:47:43;;;;;;;13.13;8.27;;;19.10;99.90;;;;;;5119423;28;20092;-82
2023/08/26 02:50:09;;;;;;;10.63;7.90;;;18.40;99.90;;;;;;5085962;27;20049;-81
2023/08/26 02:52:35;;;;;;;12.60;7.60;;;19.10;99.90;;;;;;5100161;27;20517;-82
2023/08/26 02:55:00;;;;;;;10.07;7.70;;;18.70;99.90;;;;;;5134015;27;20043;-81
2023/08/26 02:57:26;;;;;;;11.27;7.20;;;18.60;99.90;;;;;;5100792;27;20078;-81
2023/08/26 02:59:52;;;;;;;11.68;7.55;;;18.60;99.90;;;;;;5101024;27;20387;-82
2023/08/26 03:02:21;;;;;;;10.82;7.85;;;18.40;99.90;;;;;;5132229;27;20536;-81
2023/08/26 03:04:47;;;;;;;9.68;7.82;;;18.80;99.90;;;;;;5101615;27;20588;-82
2023/08/26 03:07:12;;;;;;;9.40;7.75;;;18.60;99.90;;;;;;5100623;27;20039;-82
2023/08/26 03:09:38;;;;;;;14.23;8.48;;;18.20;99.90;;;;;;5118812;27;20069;-81
2023/08/26 03:12:05;;;;;;;9.30;6.85;;;18.40;99.90;;;;;;5117718;27;20122;-81
2023/08/26 03:14:31;;;;;;;9.82;7.55;;;18.00;99.90;;;;;;5130896;27;20047;-82
2023/08/26 03:16:57;;;;;;;9.50;6.75;;;18.00;99.90;;;;;;5130425;27;20042;-81
2023/08/26 03:19:23;;;;;;;11.70;7.25;;;18.10;99.90;;;;;;5102743;27;20427;-84
2023/08/26 03:21:54;;;;;;;8.07;6.32;;;17.90;99.90;;;;;;5103631;27;20039;-84
2023/08/26 03:24:20;;;;;;;6.95;6.18;;;18.00;99.90;;;;;;5102138;27;20046;-82
2023/08/26 03:26:46;;;;;;;8.27;6.30;;;18.40;99.90;;;;;;5100842;27;20095;-82
2023/08/26 03:29:11;;;;;;;6.13;5.50;;;17.80;99.90;;;;;;5134817;27;20034;-82
2023/08/26 03:31:38;;;;;;;8.75;5.95;;;17.90;99.90;;;;;;5117929;27;20118;-81
2023/08/26 03:34:04;;;;;;;9.20;5.60;;;18.10;99.90;;;;;;5089053;27;20122;-80
2023/08/26 03:36:29;;;;;;;8.77;5.93;;;18.20;99.90;;;;;;5095756;27;20130;-81
2023/08/26 03:38:55;;;;;;;9.32;5.63;;;18.20;99.90;;;;;;5117280;27;20041;-82
2023/08/26 03:41:21;;;;;;;9.85;5.43;;;17.80;99.90;;;;;;5133687;27;20370;-81
2023/08/26 03:43:46;;;;;;;6.53;5.32;;;17.90;99.90;;;;;;5099138;27;20117;-81
2023/08/26 03:46:13;;;;;;;9.32;6.22;;;17.70;99.90;;;;;;5094754;27;20051;-81
2023/08/26 03:48:38;;;;;;;8.38;5.22;;;17.90;99.90;;;;;;5092879;28;20047;-81
2023/08/26 03:51:05;;;;;;;7.47;5.22;;;18.10;99.90;;;;;;5075177;27;20047;-81
2023/08/26 03:53:32;;;;;;;9.15;4.90;;;17.60;99.90;;;;;;5111817;27;20077;-81
2023/08/26 03:56:03;;;;;;;7.90;5.13;;;17.80;99.90;;;;;;5112266;27;20031;-80
2023/08/26 03:58:29;;;;;;;8.07;5.05;;;17.80;99.90;;;;;;5096094;27;20046;-81
2023/08/26 04:01:04;;;;;;;7.28;4.90;;;18.00;99.90;;;;;;5093663;28;20039;-80
2023/08/26 04:03:30;;;;;;;5.93;5.03;;;17.70;99.90;;;;;;5112410;27;20103;-81
2023/08/26 04:06:04;;;;;;;8.35;5.30;;;18.00;99.90;;;;;;5111428;27;20031;-82
2023/08/26 04:08:31;;;;;;;7.63;6.03;;;18.20;99.90;;;;;;5128191;27;20031;-81
2023/08/26 04:10:57;;;;;;;7.28;6.25;;;17.80;99.90;;;;;;5115956;27;20036;-81
2023/08/26 04:13:25;;;;;;;12.55;7.53;;;17.70;99.90;;;;;;5084853;27;20042;-81
2023/08/26 04:15:58;;;;;;;13.40;7.25;;;17.90;99.90;;;;;;5112911;27;20039;-80
2023/08/26 04:18:24;;;;;;;11.55;8.13;;;17.90;99.90;;;;;;5109533;27;21703;-81
2023/08/26 04:20:50;;;;;;;11.13;8.00;;;18.00;99.90;;;;;;5079955;27;20058;-81
2023/08/26 04:23:16;;;;;;;13.98;9.57;;;18.10;99.90;;;;;;5112869;27;20043;-81
2023/08/26 04:25:43;;;;;;;12.90;9.43;;;18.00;99.90;;;;;;5094922;27;20040;-82
2023/08/26 04:28:11;;;;;;;12.98;9.65;;;18.20;99.90;;;;;;5108153;27;21666;-82
2023/08/26 04:30:37;;;;;;;13.15;8.13;;;17.80;99.90;;;;;;5104033;28;20030;-82
2023/08/26 04:33:04;;;;;;;8.55;7.63;;;17.70;99.90;;;;;;5115258;27;20027;-82
2023/08/26 04:35:30;;;;;;;11.32;7.70;;;18.20;99.90;;;;;;5108867;27;20053;-81
2023/08/26 04:37:56;;;;;;;8.82;7.22;;;17.70;99.90;;;;;;5091181;28;20118;-82
2023/08/26 04:40:22;;;;;;;9.10;7.38;;;18.10;99.90;;;;;;5092961;28;20130;-82
2023/08/26 04:42:48;;;;;;;7.22;6.45;;;17.80;99.90;;;;;;5086934;28;20035;-82
2023/08/26 04:45:16;;;;;;;9.45;7.30;;;17.90;99.90;;;;;;5072170;28;20082;-81
2023/08/26 04:47:42;;;;;;;11.85;6.60;;;17.70;99.90;;;;;;5084991;28;20074;-82
2023/08/26 04:50:09;;;;;;;10.05;7.18;;;17.80;99.90;;;;;;5105189;28;20063;-83
2023/08/26 04:52:37;;;;;;;8.60;5.97;;;17.90;99.90;;;;;;5069941;28;20039;-82
2023/08/26 04:55:04;;;;;;;7.70;6.22;;;17.90;99.90;;;;;;5103891;28;20039;-82
2023/08/26 04:57:29;;;;;;;9.25;6.80;;;17.60;99.90;;;;;;5106277;28;20035;-82
2023/08/26 04:59:55;;;;;;;9.77;7.35;;;18.10;99.90;;;;;;5104343;28;20046;-81
2023/08/26 05:02:21;;;;;;;10.23;7.47;;;17.90;99.90;;;;;;5107709;28;20399;-83
2023/08/26 05:04:46;;;;;;;7.93;7.03;;;18.20;99.90;;;;;;5086809;28;20100;-84
2023/08/26 05:07:12;;;;;;;9.13;6.45;;;17.90;99.90;;;;;;5110731;28;20425;-84
2023/08/26 05:09:38;;;;;;;8.38;7.20;;;18.20;99.90;;;;;;5077561;28;20096;-83
2023/08/26 05:12:04;;;;;;;7.85;7.05;;;18.40;99.90;;;;;;5109670;28;20039;-83
2023/08/26 05:14:30;;;;;;;8.82;6.72;;;17.90;99.90;;;;;;5085474;28;20388;-84
2023/08/26 05:16:55;;;;;;;10.50;6.10;;;17.90;99.90;;;;;;5089937;28;20040;-84
2023/08/26 05:19:21;;;;;;;9.30;7.53;;;18.20;99.90;;;;;;5064712;28;20043;-84
2023/08/26 05:21:47;;;;;;;9.45;6.70;;;18.10;99.90;;;;;;5078978;28;20078;-83
2023/08/26 05:24:12;;;;;;;11.05;7.40;;;18.00;99.90;;;;;;5107270;27;20104;-82
2023/08/26 05:26:38;;;;;;;9.73;7.68;;;18.20;99.90;;;;;;5108601;28;20071;-84
2023/08/26 05:29:04;;;;;;;11.15;8.18;;;18.60;99.90;;;;;;5073748;28;20040;-84
2023/08/26 05:31:31;;;;;;;9.52;8.23;;;18.80;99.90;;;;;;5089487;28;20047;-83
2023/08/26 05:33:56;;;;;;;12.75;8.73;;;18.20;99.90;;;;;;5086916;28;20043;-81
2023/08/26 05:36:23;;;;;;;10.10;7.80;;;18.50;99.90;;;;;;5085055;28;20106;-82
2023/08/26 05:38:49;;;;;;;10.68;7.88;;;18.60;99.90;;;;;;5082988;28;20380;-82
2023/08/26 05:41:16;;;;;;;9.68;7.82;;;18.40;99.90;;;;;;5084420;28;20028;-82
2023/08/26 05:43:42;;;;;;;9.95;7.88;;;18.90;99.90;;;;;;5080581;28;20063;-83
2023/08/26 05:46:07;;;;;;;9.75;8.30;;;18.90;99.90;;;;;;5081926;28;20066;-83
2023/08/26 05:48:33;;;;;;;11.85;7.60;;;18.40;99.90;;;;;;5084630;28;20039;-84
2023/08/26 05:50:59;;;;;;;9.40;7.63;;;18.80;99.90;;;;;;5067168;28;20039;-83
2023/08/26 05:53:28;;;;;;;11.48;7.32;;;18.30;99.90;;;;;;5120405;28;20031;-82
2023/08/26 05:55:54;;;;;;;9.30;7.60;;;18.50;99.90;;;;;;5122236;28;20046;-85
2023/08/26 05:58:19;;;;;;;13.18;7.88;;;18.60;99.90;;;;;;5106384;28;20413;-83
2023/08/26 06:00:46;;;;;;;10.15;7.80;;;18.80;99.90;;;;;;5105724;28;20130;-85
2023/08/26 06:03:12;;;;;;;9.57;7.68;;;19.10;99.90;;;;;;5087761;28;20036;-84
2023/08/26 06:05:38;;;;;;;14.30;7.60;;;18.60;99.90;;;;;;5108014;28;20042;-85
2023/08/26 06:08:05;;;;;;;10.63;7.60;;;19.20;99.90;;;;;;5113608;28;20078;-84
2023/08/26 06:10:31;;;;;;;9.02;7.50;;;19.10;99.90;;;;;;5107239;28;20039;-80
2023/08/26 06:12:57;;;;;;;9.75;7.82;;;19.20;99.90;;;;;;5120236;28;20039;-81
2023/08/26 06:15:23;;;;;;;7.53;6.78;;;18.90;99.90;;;;;;5106487;28;20039;-82
2023/08/26 06:17:49;;;;;;;9.60;7.15;;;19.10;99.90;;;;;;5102973;28;20576;-82
2023/08/26 06:20:15;;;;;;;8.48;6.90;;;19.30;99.90;;;;;;5087112;28;20043;-80
2023/08/26 06:22:42;;;;;;;8.50;6.55;;;19.40;99.90;;;;;;5068346;28;20038;-80
2023/08/26 06:25:13;;;;;;;6.85;6.15;;;19.40;99.90;;;;;;5074876;28;20071;-80
2023/08/26 06:27:40;;;;;;;8.80;6.00;;;19.00;99.90;;;;;;5080742;27;20360;-81
2023/08/26 06:30:07;;;;;;;7.38;6.18;;;19.20;99.90;;;;;;5111142;27;20683;-80
2023/08/26 06:32:32;;;;;;;7.72;5.75;;;19.30;99.90;;;;;;5097008;27;20113;-82
2023/08/26 06:34:58;;;;;;;5.82;5.30;;;19.00;99.90;;;;;;5114563;27;20193;-81
2023/08/26 06:37:24;;;;;;;6.82;4.85;;;19.40;99.90;;;;;;5096632;27;20043;-82
2023/08/26 06:39:50;;;;;;;6.47;5.40;;;19.20;99.90;;;;;;5092999;27;20492;-81
2023/08/26 06:42:15;;;;;;;5.32;4.78;;;19.30;99.90;;;;;;5130239;27;20034;-81
2023/08/26 06:44:41;;;;;;;5.25;4.03;;;19.40;99.90;;;;;;5113913;27;20487;-80
2023/08/26 06:47:08;;;;;;;8.02;4.28;;;19.30;99.90;;;;;;5108798;27;20130;-81
2023/08/26 06:49:34;;;;;;;5.80;4.45;;;19.10;99.90;;;;;;5111810;27;20177;-81
2023/08/26 06:52:00;;;;;;;4.72;3.83;;;18.70;99.90;;;;;;5112760;27;20381;-80
2023/08/26 06:54:25;;;;;;;5.28;4.00;;;19.00;99.90;;;;;;5130936;27;20047;-81
2023/08/26 06:56:51;;;;;;;5.15;3.90;;;19.20;99.90;;;;;;5091616;27;20668;-81
2023/08/26 06:59:17;;;;;;;5.70;4.32;;;18.70;99.90;;;;;;5113241;27;20156;-80
2023/08/26 07:01:44;;;;;;;5.35;4.53;;;18.90;99.90;;;;;;5113127;27;20043;-80
2023/08/26 07:04:11;;;;;;;5.68;4.68;;;18.90;99.90;;;;;;5095400;27;20082;-81
2023/08/26 07:06:37;;;;;;;5.63;4.18;;;19.10;99.90;;;;;;5111868;27;20043;-81
2023/08/26 07:09:06;;;;;;;8.75;4.55;;;18.70;99.90;;;;;;5107036;27;20779;-80
2023/08/26 07:11:32;;;;;;;4.25;3.85;;;18.80;99.90;;;;;;5104958;27;20041;-83
2023/08/26 07:13:59;;;;;;;6.88;4.50;;;19.30;99.90;;;;;;5104504;27;20473;-79
2023/08/26 07:16:28;;;;;;;6.68;4.50;;;18.90;99.90;;;;;;5108112;27;20126;-81
2023/08/26 07:18:54;;;;;;;6.03;4.57;;;19.00;99.90;;;;;;5109678;27;20085;-80
2023/08/26 07:21:19;;;;;;;4.93;4.43;;;19.40;99.90;;;;;;5090161;27;20062;-80
2023/08/26 07:23:45;;;;;;;7.82;4.88;;;19.30;99.90;;;;;;5106821;27;20580;-80
2023/08/26 07:26:11;;;;;;;5.25;4.75;;;19.10;99.90;;;;;;5122152;27;20125;-81
2023/08/26 07:28:37;;;;;;;6.53;4.80;;;19.50;99.90;;;;;;5092406;27;20693;-81
2023/08/26 07:31:05;;;;;;;6.88;4.85;;;19.50;99.90;;;;;;5108161;27;20416;-82
2023/08/26 07:33:31;;;;;;;5.80;5.30;;;19.80;99.90;;;;;;5124146;27;20038;-79
2023/08/26 07:36:05;;;;;;;6.30;5.70;;;19.30;99.90;;;;;;5105931;27;20518;-80
2023/08/26 07:38:30;;;;;;;5.90;5.40;;;19.50;99.90;;;;;;5101911;27;21406;-82
2023/08/26 07:40:56;;;;;;;8.77;6.20;;;19.90;99.90;;;;;;5106972;27;20046;-79
2023/08/26 07:43:22;;;;;;;6.78;5.88;;;19.80;99.90;;;;;;5123697;27;20112;-81
2023/08/26 07:45:47;;;;;;;7.43;6.68;;;19.80;99.90;;;;;;5088477;27;20058;-79
2023/08/26 07:48:13;;;;;;;8.82;7.45;;;20.00;99.90;;;;;;5108514;27;20095;-80
2023/08/26 07:50:39;;;;;;;9.57;8.30;;;19.70;99.90;;;;;;5127869;27;20998;-82
2023/08/26 07:53:05;;;;;;;10.60;8.90;;;19.80;99.90;;;;;;5109134;27;20046;-81
2023/08/26 07:55:32;;;;;;;11.65;10.13;;;20.10;99.90;;;;;;5127114;27;20470;-80
2023/08/26 07:57:58;;;;;;;12.25;10.35;;;20.00;99.90;;;;;;5090816;28;20057;-80
2023/08/26 08:00:24;;;;;;;13.48;12.05;;;20.10;99.90;;;;;;5104613;27;20039;-81
2023/08/26 08:02:50;;;;;;;16.75;12.68;;;19.90;99.90;;;;;;5108944;28;20050;-81
2023/08/26 08:05:16;;;;;;;17.92;14.23;;;20.00;99.90;;;;;;5092692;28;20031;-82
2023/08/26 08:07:42;;;;;;;17.88;15.25;;;20.70;99.90;;;;;;5085912;27;20037;-81
2023/08/26 08:10:08;;;;;;;17.50;15.70;;;20.70;99.90;;;;;;5083601;27;20169;-80
2023/08/26 08:12:35;;;;;;;18.52;16.55;;;20.90;99.90;;;;;;5088335;27;20077;-80
2023/08/26 08:15:01;;;;;;;20.50;17.38;;;20.90;99.90;;;;;;5125600;27;20062;-80
2023/08/26 08:17:27;;;;;;;21.10;17.35;;;21.10;99.90;;;;;;5106182;27;20510;-85
2023/08/26 08:19:53;;;;;;;22.30;17.98;;;20.60;99.90;;;;;;5082308;27;20039;-84
2023/08/26 08:22:32;;;;;;;18.60;16.55;;;20.90;99.90;;;;;;5100865;27;20032;-84
2023/08/26 08:24:58;;;;;;;20.15;16.30;;;20.70;99.90;;;;;;5114122;27;20043;-85
2023/08/26 08:27:24;;;;;;;21.23;17.95;;;20.90;99.90;;;;;;5113148;27;20557;-83
2023/08/26 08:29:50;;;;;;;19.38;17.05;;;21.10;99.90;;;;;;5081938;28;20126;-84
2023/08/26 08:32:15;;;;;;;20.48;18.00;;;20.90;99.90;;;;;;5124845;27;20035;-84
2023/08/26 08:34:41;;;;;;;20.40;17.38;;;21.20;99.90;;;;;;5110400;27;20475;-83
2023/08/26 08:37:07;;;;;;;19.70;17.45;;;20.70;99.90;;;;;;5113494;27;20120;-84
2023/08/26 08:39:32;;;;;;;22.30;17.55;;;21.40;99.90;;;;;;5109894;27;20125;-83
2023/08/26 08:42:02;;;;;;;20.60;18.50;;;21.20;99.90;;;;;;5080178;27;20034;-84
2023/08/26 08:44:33;;;;;;;20.90;17.50;;;21.00;99.90;;;;;;5101801;28;20048;-84
2023/08/26 08:46:58;;;;;;;19.55;17.45;;;21.10;99.90;;;;;;5092489;28;20032;-82
2023/08/26 08:49:24;;;;;;;21.10;16.90;;;21.40;99.90;;;;;;5073689;28;20042;-82
2023/08/26 08:51:51;;;;;;;19.25;17.02;;;21.50;99.90;;;;;;5093277;28;20126;-83
2023/08/26 08:54:17;;;;;;;21.40;16.73;;;21.60;99.90;;;;;;5056275;28;20035;-84
2023/08/26 08:56:43;;;;;;;19.42;16.33;;;21.80;99.90;;;;;;5090087;28;20036;-84
2023/08/26 08:59:11;;;;;;;16.33;14.63;;;21.60;99.90;;;;;;5073258;28;20085;-84
2023/08/26 09:01:37;;;;;;;19.98;14.93;;;21.80;99.90;;;;;;5088604;28;20063;-84
2023/08/26 09:04:06;;;;;;;17.92;14.57;;;21.60;99.90;;;;;;5083248;28;20063;-84
2023/08/26 09:06:33;;;;;;;15.35;13.73;;;21.90;99.90;;;;;;5091737;28;20047;-83
2023/08/26 09:08:59;;;;;;;13.75;12.30;;;22.10;99.90;;;;;;5075329;28;20092;-84
2023/08/26 09:11:27;;;;;;;13.73;11.68;;;21.70;99.90;;;;;;5093146;28;20040;-84
2023/08/26 09:13:53;;;;;;;12.90;11.45;;;21.80;99.90;;;;;;5092392;28;20403;-84
2023/08/26 09:16:37;;;;;;;13.98;11.32;;;21.90;99.90;;;;;;5085798;28;20031;-84
2023/08/26 09:19:07;;;;;;;12.50;11.20;;;22.10;99.90;;;;;;5086463;28;20063;-84
2023/08/26 09:21:33;;;;;;;10.52;9.43;;;22.00;99.90;;;;;;5090417;28;20122;-84
2023/08/26 09:24:00;;;;;;;10.52;9.43;;;22.30;99.90;;;;;;5088668;28;20114;-82
2023/08/26 09:26:27;;;;;;;11.02;9.35;;;22.10;99.90;;;;;;5072798;28;20035;-83
2023/08/26 09:28:52;;;;;;;13.00;9.55;;;22.40;99.90;;;;;;5110421;28;20031;-83
2023/08/26 09:31:19;;;;;;;11.98;9.88;;;22.50;99.90;;;;;;5071763;28;20039;-84
2023/08/26 09:34:09;;;;;;;10.70;9.60;;;22.40;99.90;;;;;;5085066;28;20043;-86
2023/08/26 09:36:39;;;;;;;12.00;10.57;;;22.60;99.90;;;;;;5061746;28;20107;-88
2023/08/26 09:39:15;;;;;;;10.38;9.32;;;22.90;99.90;;;;;;5106881;28;20028;-83
2023/08/26 09:41:45;;;;;;;12.98;9.60;;;22.90;99.90;;;;;;5100073;28;20092;-84
2023/08/26 09:44:12;;;;;;;10.57;9.32;;;22.90;99.90;;;;;;5074555;27;20372;-85
2023/08/26 09:46:42;;;;;;;13.20;8.98;;;23.20;99.90;;;;;;5115883;27;20039;-85
2023/08/26 09:49:14;;;;;;;13.40;9.38;;;23.50;99.90;;;;;;5112712;27;20413;-84
2023/08/26 09:51:52;;;;;;;9.77;8.80;;;23.90;99.90;;;;;;5132992;27;20110;-83
2023/08/26 09:54:19;;;;;;;11.73;9.52;;;23.90;99.90;;;;;;5133222;27;20035;-86
2023/08/26 09:56:46;;;;;;;10.77;8.00;;;23.80;99.90;;;;;;5097371;27;20624;-84
2023/08/26 09:59:12;;;;;;;10.43;8.02;;;24.10;99.90;;;;;;5122680;27;20402;-85
2023/08/26 10:01:39;;;;;;;9.00;7.65;;;24.30;99.90;;;;;;5135922;27;20073;-86
2023/08/26 10:04:13;;;;;;;7.90;6.25;;;24.60;99.90;;;;;;5104143;27;20070;-84
2023/08/26 10:06:43;;;;;;;;;;;24.30;99.90;;;;;;5119809;27;20039;-82
2023/08/26 10:09:29;;;;;;;7.65;6.57;;;24.40;99.90;;;;;;5128329;27;19916;-82
2023/08/26 10:11:55;;;;;;;10.10;7.47;;;23.80;99.90;;;;;;5113269;27;20058;-84
2023/08/26 10:14:24;;;;;;;10.52;7.00;;;23.90;99.90;;;;;;5090040;27;20455;-84
2023/08/26 10:16:52;;;;;;;8.35;6.35;;;23.80;99.90;;;;;;5096018;27;20110;-83
2023/08/26 10:19:20;;;;;;;8.50;6.25;;;23.90;99.90;;;;;;5112172;27;20118;-84
2023/08/26 10:21:46;;;;;;;7.68;6.00;;;23.80;99.90;;;;;;5115046;27;20058;-78
2023/08/26 10:24:13;;;;;;;6.30;5.43;;;23.80;99.90;;;;;;5130613;27;20122;-81
2023/08/26 10:26:39;;;;;;;8.18;5.00;;;23.60;99.90;;;;;;5110393;27;20039;-80
2023/08/26 10:29:06;;;;;;;6.75;5.30;;;23.40;99.90;;;;;;5118528;27;20336;-80
2023/08/26 10:31:42;;;;;;;6.35;5.60;;;23.30;99.90;;;;;;5133266;27;20103;-82
2023/08/26 10:34:08;;;;;;;6.97;5.78;;;23.00;99.90;;;;;;5111785;27;20071;-82
2023/08/26 10:36:35;;;;;;;6.72;5.97;;;22.90;99.90;;;;;;5111870;27;20086;-82
2023/08/26 10:39:02;;;;;;;3.72;2.40;;;22.80;99.90;;;;;;5097662;27;20551;-82
2023/08/26 10:41:28;;;;;;;2.67;1.60;;;22.30;99.90;;;;;;5106115;27;20046;-81
2023/08/26 10:43:56;;;;;;;10.27;2.78;;;21.80;99.90;;;;;;5119456;27;20057;-85
2023/08/26 10:46:34;;;;;;;7.03;2.60;;;20.90;99.90;;;;;;5104805;27;20556;-79
2023/08/26 10:49:02;;;;;;;7.18;2.00;;;20.00;99.90;;;;;;5106022;27;20039;-79
2023/08/26 10:51:30;;;;;;;3.70;1.48;;;19.70;99.90;;;;;;5123725;27;20035;-79
2023/08/26 10:54:04;;;;;;;3.75;1.88;;;19.90;99.90;;;;;;5097495;27;20126;-79
2023/08/26 10:56:34;;;;;;;7.78;2.00;;;19.60;99.90;;;;;;5125099;27;20027;-78
2023/08/26 10:59:05;;;;;;;6.18;2.30;;;19.50;99.90;;;;;;5133802;27;20083;-80
2023/08/26 11:01:35;;;;;;;3.28;1.88;;;20.00;99.90;;;;;;5127728;27;20042;-79
2023/08/26 11:04:03;;;;;;;4.10;1.90;;;20.10;99.90;;;;;;5100184;27;20035;-81
2023/08/26 11:06:39;;;;;;;3.97;1.88;;;19.60;99.90;;;;;;5117243;27;20494;-80
2023/08/26 11:09:08;;;;;;;4.95;1.65;;;19.60;99.90;;;;;;5120386;27;20115;-80
2023/08/26 11:11:37;;;;;;;3.67;2.25;;;20.60;99.90;;;;;;5106845;27;20515;-81
2023/08/26 11:14:03;;;;;;;5.05;2.40;;;20.70;99.90;;;;;;5088562;27;20031;-78
2023/08/26 11:16:29;;;;;;;5.97;2.25;;;21.90;99.90;;;;;;5113155;27;20031;-80
2023/08/26 11:18:56;;;;;;;3.60;2.25;;;20.80;99.90;;;;;;5087568;27;20035;-81
2023/08/26 11:21:23;;;;;;;2.97;2.22;;;21.60;99.90;;;;;;5113293;27;20034;-81
2023/08/26 11:23:51;;;;;;;2.47;2.00;;;22.20;99.90;;;;;;5116625;27;20781;-81
2023/08/26 11:26:20;;;;;;;4.10;2.00;;;22.10;99.90;;;;;;5116753;27;20052;-82
2023/08/26 11:28:58;;;;;;;2.95;2.38;;;21.40;99.90;;;;;;5116683;27;20534;-82
2023/08/26 11:31:24;;;;;;;4.43;2.38;;;21.70;99.90;;;;;;5097166;27;20457;-81
2023/08/26 11:33:57;;;;;;;2.75;2.15;;;22.80;99.90;;;;;;5112632;27;20183;-82
2023/08/26 11:36:39;;;;;;;3.20;2.40;;;22.80;99.90;;;;;;5112747;27;20125;-81
2023/08/26 11:39:17;;;;;;;3.78;2.83;;;22.10;99.90;;;;;;5097848;27;20050;-81
2023/08/26 11:42:32;;;;;;;3.50;3.20;;;22.80;99.90;;;;;;5094485;27;20742;-81
2023/08/26 11:45:07;;;;;;;3.90;3.50;;;22.00;99.90;;;;;;5124446;27;20055;-81
2023/08/26 11:48:12;;;;;;;;;;;;;;;;;;;;;
2023/08/26 11:50:46;;;;;;;5.47;4.00;;;22.10;99.90;;;;;;5108438;27;20035;-80
2023/08/26 11:53:14;;;;;;;4.47;3.83;;;22.10;99.90;;;;;;5092078;27;20033;-81
2023/08/26 11:55:41;;;;;;;6.03;4.18;;;22.90;99.90;;;;;;5107821;27;20487;-83
2023/08/26 11:58:07;;;;;;;5.55;4.10;;;22.60;99.90;;;;;;5108166;28;20426;-82
2023/08/26 12:00:38;;;;;;;6.85;5.30;;;23.00;99.90;;;;;;5111812;27;20051;-82
2023/08/26 12:03:06;;;;;;;7.65;5.15;;;22.70;99.90;;;;;;5112401;27;20053;-82
2023/08/26 12:05:46;;;;;;;8.40;5.10;;;22.90;99.90;;;;;;5085836;27;20104;-81
2023/08/26 12:08:19;;;;;;;8.25;5.07;;;22.80;99.90;;;;;;5079352;28;20707;-82
2023/08/26 12:10:49;;;;;;;7.13;4.55;;;23.00;99.90;;;;;;5076263;28;20067;-77
2023/08/26 12:13:16;;;;;;;7.28;5.10;;;23.10;99.90;;;;;;5104457;27;20398;-77
2023/08/26 12:15:42;;;;;;;7.35;4.85;;;23.00;99.90;;;;;;5090705;28;20043;-77
2023/08/26 12:18:11;;;;;;;7.07;5.35;;;23.00;99.90;;;;;;5123522;27;20547;-76
2023/08/26 12:20:37;;;;;;;7.22;5.93;;;23.60;99.90;;;;;;5112163;27;20031;-77
2023/08/26 12:23:07;;;;;;;7.45;5.65;;;23.50;99.90;;;;;;5109026;27;20240;-78
2023/08/26 12:25:39;;;;;;;7.78;5.82;;;23.50;99.90;;;;;;5109778;27;20047;-78
2023/08/26 12:28:07;;;;;;;7.00;6.30;;;22.80;99.90;;;;;;5127749;27;20066;-80
2023/08/26 12:30:33;;;;;;;8.90;6.75;;;23.50;99.90;;;;;;5104201;27;20341;-81
2023/08/26 12:32:59;;;;;;;8.15;7.28;;;22.90;99.90;;;;;;5127180;27;20063;-77
2023/08/26 12:35:25;;;;;;;8.50;7.70;;;23.40;99.90;;;;;;5103146;27;20103;-77
2023/08/26 12:37:50;;;;;;;8.38;7.28;;;23.20;99.90;;;;;;5101537;27;20594;-77
2023/08/26 12:40:17;;;;;;;8.77;7.15;;;22.40;99.90;;;;;;5099555;27;20146;-77
2023/08/26 12:42:42;;;;;;;8.50;7.53;;;22.70;99.90;;;;;;5123643;27;20456;-77